sensor_id;sensor_type;location;lat;lon;timestamp;pressure;altitude;pressure_sealevel;temperature;humidity
66857;BME280;53766;50.280;19.160;2023-08-08T00:01:44;98119.50;;;20.22;60.57
66857;BME280;53766;50.280;19.160;2023-08-08T00:04:12;98125.66;;;20.23;60.72
66857;BME280;53766;50.280;19.160;2023-08-08T00:06:40;98126.50;;;20.23;60.75
66857;BME280;53766;50.280;19.160;2023-08-08T00:09:07;98125.66;;;20.23;60.64
66857;BME280;53766;50.280;19.160;2023-08-08T00:11:35;98132.06;;;20.22;60.59
66857;BME280;53766;50.280;19.160;2023-08-08T00:14:02;98131.00;;;20.23;60.71
66857;BME280;53766;50.280;19.160;2023-08-08T00:16:30;98133.94;;;20.21;60.56
66857;BME280;53766;50.280;19.160;2023-08-08T00:18:57;98134.75;;;20.22;60.70
66857;BME280;53766;50.280;19.160;2023-08-08T00:21:25;98136.59;;;20.21;60.67
66857;BME280;53766;50.280;19.160;2023-08-08T00:23:52;98134.75;;;20.22;60.65
66857;BME280;53766;50.280;19.160;2023-08-08T00:26:20;98129.59;;;20.20;60.54
66857;BME280;53766;50.280;19.160;2023-08-08T00:28:47;98139.50;;;20.20;60.72
66857;BME280;53766;50.280;19.160;2023-08-08T00:31:15;98137.63;;;20.20;60.51
66857;BME280;53766;50.280;19.160;2023-08-08T00:33:45;98138.44;;;20.21;60.56
66857;BME280;53766;50.280;19.160;2023-08-08T00:36:12;98131.47;;;20.20;60.58
66857;BME280;53766;50.280;19.160;2023-08-08T00:38:40;98142.97;;;20.20;60.62
66857;BME280;53766;50.280;19.160;2023-08-08T00:41:07;98142.16;;;20.20;60.69
66857;BME280;53766;50.280;19.160;2023-08-08T00:43:35;98142.16;;;20.20;60.54
66857;BME280;53766;50.280;19.160;2023-08-08T00:46:02;98145.06;;;20.18;60.59
66857;BME280;53766;50.280;19.160;2023-08-08T00:48:30;98137.88;;;20.19;60.62
66857;BME280;53766;50.280;19.160;2023-08-08T00:50:59;98140.53;;;20.19;60.58
66857;BME280;53766;50.280;19.160;2023-08-08T00:53:29;98140.53;;;20.19;60.49
66857;BME280;53766;50.280;19.160;2023-08-08T00:55:58;98145.91;;;20.19;60.61
66857;BME280;53766;50.280;19.160;2023-08-08T00:58:26;98153.91;;;20.19;60.51
66857;BME280;53766;50.280;19.160;2023-08-08T01:00:55;98149.59;;;20.18;60.46
66857;BME280;53766;50.280;19.160;2023-08-08T01:03:25;98154.94;;;20.18;60.50
66857;BME280;53766;50.280;19.160;2023-08-08T01:05:59;98149.59;;;20.18;60.39
66857;BME280;53766;50.280;19.160;2023-08-08T01:08:35;98161.09;;;20.18;60.38
66857;BME280;53766;50.280;19.160;2023-08-08T01:11:07;98154.94;;;20.18;60.50
66857;BME280;53766;50.280;19.160;2023-08-08T01:13:35;98154.94;;;20.18;60.62
66857;BME280;53766;50.280;19.160;2023-08-08T01:16:04;98164.81;;;20.17;60.73
66857;BME280;53766;50.280;19.160;2023-08-08T01:18:34;98153.31;;;20.17;60.59
66857;BME280;53766;50.280;19.160;2023-08-08T01:21:03;98154.94;;;20.18;60.37
66857;BME280;53766;50.280;19.160;2023-08-08T01:23:44;98157.00;;;20.16;60.40
66857;BME280;53766;50.280;19.160;2023-08-08T01:26:12;98153.31;;;20.17;60.55
66857;BME280;53766;50.280;19.160;2023-08-08T01:28:42;98156.19;;;20.15;60.46
66857;BME280;53766;50.280;19.160;2023-08-08T01:31:10;98158.66;;;20.17;60.51
66857;BME280;53766;50.280;19.160;2023-08-08T01:33:38;98159.69;;;20.16;60.45
66857;BME280;53766;50.280;19.160;2023-08-08T01:36:11;98160.75;;;20.14;60.52
66857;BME280;53766;50.280;19.160;2023-08-08T01:38:43;98159.91;;;20.14;60.41
66857;BME280;53766;50.280;19.160;2023-08-08T01:41:12;98158.06;;;20.14;60.47
66857;BME280;53766;50.280;19.160;2023-08-08T01:43:40;98160.75;;;20.14;60.63
66857;BME280;53766;50.280;19.160;2023-08-08T01:46:09;98169.78;;;20.13;60.53
66857;BME280;53766;50.280;19.160;2023-08-08T01:48:37;98162.56;;;20.14;60.52
66857;BME280;53766;50.280;19.160;2023-08-08T01:51:05;98164.44;;;20.13;60.41
66857;BME280;53766;50.280;19.160;2023-08-08T01:53:32;98164.44;;;20.13;60.38
66857;BME280;53766;50.280;19.160;2023-08-08T01:56:00;98172.47;;;20.13;60.47
66857;BME280;53766;50.280;19.160;2023-08-08T01:58:27;98167.13;;;20.13;60.46
66857;BME280;53766;50.280;19.160;2023-08-08T02:00:55;98171.66;;;20.13;60.33
66857;BME280;53766;50.280;19.160;2023-08-08T02:03:23;98170.84;;;20.12;60.44
66857;BME280;53766;50.280;19.160;2023-08-08T02:05:50;98165.50;;;20.12;60.34
66857;BME280;53766;50.280;19.160;2023-08-08T02:08:18;98168.16;;;20.12;60.47
66857;BME280;53766;50.280;19.160;2023-08-08T02:10:46;98168.16;;;20.12;60.41
66857;BME280;53766;50.280;19.160;2023-08-08T02:13:13;98168.16;;;20.12;60.28
66857;BME280;53766;50.280;19.160;2023-08-08T02:15:41;98175.13;;;20.13;60.42
66857;BME280;53766;50.280;19.160;2023-08-08T02:18:08;98174.53;;;20.11;60.39
66857;BME280;53766;50.280;19.160;2023-08-08T02:20:37;98171.88;;;20.11;60.30
66857;BME280;53766;50.280;19.160;2023-08-08T02:23:04;98181.75;;;20.11;60.21
66857;BME280;53766;50.280;19.160;2023-08-08T02:25:32;98177.22;;;20.11;60.40
66857;BME280;53766;50.280;19.160;2023-08-08T02:27:59;98185.22;;;20.11;60.40
66857;BME280;53766;50.280;19.160;2023-08-08T02:30:27;98180.94;;;20.10;60.30
66857;BME280;53766;50.280;19.160;2023-08-08T02:32:54;98184.63;;;20.09;60.11
66857;BME280;53766;50.280;19.160;2023-08-08T02:35:22;98186.28;;;20.10;60.38
66857;BME280;53766;50.280;19.160;2023-08-08T02:37:49;98195.31;;;20.09;60.30
66857;BME280;53766;50.280;19.160;2023-08-08T02:40:17;98191.63;;;20.10;60.35
66857;BME280;53766;50.280;19.160;2023-08-08T02:42:44;98189.16;;;20.09;60.31
66857;BME280;53766;50.280;19.160;2023-08-08T02:45:12;98193.69;;;20.08;60.15
66857;BME280;53766;50.280;19.160;2023-08-08T02:47:39;98193.69;;;20.08;60.16
66857;BME280;53766;50.280;19.160;2023-08-08T02:50:07;98195.31;;;20.09;60.25
66857;BME280;53766;50.280;19.160;2023-08-08T02:52:35;98188.34;;;20.08;60.14
66857;BME280;53766;50.280;19.160;2023-08-08T02:55:03;98196.38;;;20.08;60.06
66857;BME280;53766;50.280;19.160;2023-08-08T02:57:30;98198.25;;;20.08;60.25
66857;BME280;53766;50.280;19.160;2023-08-08T02:59:58;98197.41;;;20.07;60.10
66857;BME280;53766;50.280;19.160;2023-08-08T03:02:26;98201.13;;;20.06;60.10
66857;BME280;53766;50.280;19.160;2023-08-08T03:04:53;98201.94;;;20.07;60.13
66857;BME280;53766;50.280;19.160;2023-08-08T03:07:21;98208.09;;;20.07;60.13
66857;BME280;53766;50.280;19.160;2023-08-08T03:09:48;98213.44;;;20.07;60.15
66857;BME280;53766;50.280;19.160;2023-08-08T03:12:16;98211.81;;;20.06;60.18
66857;BME280;53766;50.280;19.160;2023-08-08T03:14:43;98213.69;;;20.06;60.05
66857;BME280;53766;50.280;19.160;2023-08-08T03:17:11;98217.16;;;20.06;60.10
66857;BME280;53766;50.280;19.160;2023-08-08T03:19:38;98215.50;;;20.05;60.22
66857;BME280;53766;50.280;19.160;2023-08-08T03:22:06;98217.16;;;20.06;60.23
66857;BME280;53766;50.280;19.160;2023-08-08T03:24:34;98219.25;;;20.04;60.04
66857;BME280;53766;50.280;19.160;2023-08-08T03:27:01;98226.19;;;20.05;60.05
66857;BME280;53766;50.280;19.160;2023-08-08T03:29:29;98236.09;;;20.05;60.15
66857;BME280;53766;50.280;19.160;2023-08-08T03:31:56;98235.28;;;20.04;60.08
66857;BME280;53766;50.280;19.160;2023-08-08T03:34:23;98232.59;;;20.04;60.00
66857;BME280;53766;50.280;19.160;2023-08-08T03:36:51;98239.81;;;20.04;60.21
66857;BME280;53766;50.280;19.160;2023-08-08T03:39:19;98245.16;;;20.04;60.05
66857;BME280;53766;50.280;19.160;2023-08-08T03:41:46;98243.28;;;20.04;60.17
66857;BME280;53766;50.280;19.160;2023-08-08T03:44:14;98243.50;;;20.03;60.10
66857;BME280;53766;50.280;19.160;2023-08-08T03:46:41;98249.66;;;20.03;60.14
66857;BME280;53766;50.280;19.160;2023-08-08T03:49:09;98252.34;;;20.03;60.11
66857;BME280;53766;50.280;19.160;2023-08-08T03:51:36;98248.84;;;20.03;60.13
66857;BME280;53766;50.280;19.160;2023-08-08T03:54:04;98248.03;;;20.02;59.93
66857;BME280;53766;50.280;19.160;2023-08-08T03:56:31;98257.94;;;20.02;60.10
66857;BME280;53766;50.280;19.160;2023-08-08T03:58:59;98265.69;;;20.03;60.15
66857;BME280;53766;50.280;19.160;2023-08-08T04:01:26;98265.94;;;20.02;60.15
66857;BME280;53766;50.280;19.160;2023-08-08T04:03:54;98263.28;;;20.02;60.03
66857;BME280;53766;50.280;19.160;2023-08-08T04:06:21;98265.94;;;20.02;60.12
66857;BME280;53766;50.280;19.160;2023-08-08T04:08:49;98266.97;;;20.01;60.01
66857;BME280;53766;50.280;19.160;2023-08-08T04:11:16;98268.63;;;20.02;60.05
66857;BME280;53766;50.280;19.160;2023-08-08T04:13:44;98270.47;;;20.01;59.93
66857;BME280;53766;50.280;19.160;2023-08-08T04:16:11;98273.16;;;20.01;59.98
66857;BME280;53766;50.280;19.160;2023-08-08T04:18:39;98273.16;;;20.01;59.96
66857;BME280;53766;50.280;19.160;2023-08-08T04:21:06;98277.44;;;20.02;60.08
66857;BME280;53766;50.280;19.160;2023-08-08T04:23:34;98287.09;;;20.03;60.02
66857;BME280;53766;50.280;19.160;2023-08-08T04:26:01;98294.09;;;20.04;59.85
66857;BME280;53766;50.280;19.160;2023-08-08T04:28:29;98294.69;;;20.06;59.81
66857;BME280;53766;50.280;19.160;2023-08-08T04:30:56;98301.44;;;20.09;59.73
66857;BME280;53766;50.280;19.160;2023-08-08T04:33:24;98302.25;;;20.09;59.76
66857;BME280;53766;50.280;19.160;2023-08-08T04:35:51;98302.25;;;20.09;59.80
66857;BME280;53766;50.280;19.160;2023-08-08T04:38:20;98306.59;;;20.10;59.62
66857;BME280;53766;50.280;19.160;2023-08-08T04:40:47;98310.88;;;20.11;59.65
66857;BME280;53766;50.280;19.160;2023-08-08T04:43:15;98310.88;;;20.11;59.79
66857;BME280;53766;50.280;19.160;2023-08-08T04:45:42;98316.22;;;20.11;59.72
66857;BME280;53766;50.280;19.160;2023-08-08T04:48:09;98319.50;;;20.13;59.65
66857;BME280;53766;50.280;19.160;2023-08-08T04:50:37;98325.47;;;20.16;59.72
66857;BME280;53766;50.280;19.160;2023-08-08T04:53:04;98335.94;;;20.17;59.74
66857;BME280;53766;50.280;19.160;2023-08-08T04:55:32;98326.28;;;20.16;59.67
66857;BME280;53766;50.280;19.160;2023-08-08T04:57:59;98339.88;;;20.14;59.67
66857;BME280;53766;50.280;19.160;2023-08-08T05:00:27;98340.91;;;20.13;59.73
66857;BME280;53766;50.280;19.160;2023-08-08T05:02:55;98351.59;;;20.13;59.66
66857;BME280;53766;50.280;19.160;2023-08-08T05:05:23;98345.44;;;20.13;59.72
66857;BME280;53766;50.280;19.160;2023-08-08T05:07:51;98346.25;;;20.13;59.87
66857;BME280;53766;50.280;19.160;2023-08-08T05:10:18;98353.25;;;20.14;59.75
66857;BME280;53766;50.280;19.160;2023-08-08T05:12:46;98348.72;;;20.15;59.84
66857;BME280;53766;50.280;19.160;2023-08-08T05:15:13;98352.81;;;20.18;59.67
66857;BME280;53766;50.280;19.160;2023-08-08T05:17:41;98350.72;;;20.20;59.63
66857;BME280;53766;50.280;19.160;2023-08-08T05:20:09;98350.94;;;20.18;59.89
66857;BME280;53766;50.280;19.160;2023-08-08T05:22:37;98355.47;;;20.18;59.79
66857;BME280;53766;50.280;19.160;2023-08-08T05:25:05;98356.53;;;20.17;59.76
66857;BME280;53766;50.280;19.160;2023-08-08T05:27:32;98352.81;;;20.18;59.84
66857;BME280;53766;50.280;19.160;2023-08-08T05:30:00;98355.28;;;20.19;59.81
66857;BME280;53766;50.280;19.160;2023-08-08T05:32:28;98350.72;;;20.20;59.89
66857;BME280;53766;50.280;19.160;2023-08-08T05:34:55;98359.34;;;20.22;59.70
66857;BME280;53766;50.280;19.160;2023-08-08T05:37:24;98356.06;;;20.20;59.81
66857;BME280;53766;50.280;19.160;2023-08-08T05:39:52;98357.13;;;20.19;59.89
66857;BME280;53766;50.280;19.160;2023-08-08T05:42:20;98359.81;;;20.19;59.84
66857;BME280;53766;50.280;19.160;2023-08-08T05:44:48;98358.16;;;20.18;59.86
66857;BME280;53766;50.280;19.160;2023-08-08T05:47:15;98360.81;;;20.18;59.76
66857;BME280;53766;50.280;19.160;2023-08-08T05:49:43;98360.81;;;20.18;59.86
66857;BME280;53766;50.280;19.160;2023-08-08T05:52:10;98362.69;;;20.17;59.78
66857;BME280;53766;50.280;19.160;2023-08-08T05:54:38;98366.16;;;20.18;59.89
66857;BME280;53766;50.280;19.160;2023-08-08T05:57:06;98361.88;;;20.17;59.68
66857;BME280;53766;50.280;19.160;2023-08-08T05:59:33;98357.34;;;20.17;59.71
66857;BME280;53766;50.280;19.160;2023-08-08T06:02:01;98363.50;;;20.18;59.91
66857;BME280;53766;50.280;19.160;2023-08-08T06:04:29;98371.31;;;20.19;59.82
66857;BME280;53766;50.280;19.160;2023-08-08T06:06:57;98363.66;;;20.23;59.64
66857;BME280;53766;50.280;19.160;2023-08-08T06:09:25;98360.97;;;20.23;59.80
66857;BME280;53766;50.280;19.160;2023-08-08T06:11:52;98362.63;;;20.24;59.69
66857;BME280;53766;50.280;19.160;2023-08-08T06:14:20;98370.22;;;20.27;59.62
66857;BME280;53766;50.280;19.160;2023-08-08T06:16:47;98367.53;;;20.27;59.50
66857;BME280;53766;50.280;19.160;2023-08-08T06:19:15;98361.16;;;20.28;59.68
66857;BME280;53766;50.280;19.160;2023-08-08T06:21:43;98363.84;;;20.28;59.56
66857;BME280;53766;50.280;19.160;2023-08-08T06:24:10;98370.81;;;20.29;59.47
66857;BME280;53766;50.280;19.160;2023-08-08T06:26:38;98377.81;;;20.30;59.35
66857;BME280;53766;50.280;19.160;2023-08-08T06:29:05;98371.41;;;20.31;59.65
66857;BME280;53766;50.280;19.160;2023-08-08T06:31:33;98366.06;;;20.31;59.49
66857;BME280;53766;50.280;19.160;2023-08-08T06:34:00;98364.19;;;20.31;59.59
66857;BME280;53766;50.280;19.160;2023-08-08T06:36:28;98368.53;;;20.32;59.48
66857;BME280;53766;50.280;19.160;2023-08-08T06:38:56;98366.66;;;20.33;59.55
66857;BME280;53766;50.280;19.160;2023-08-08T06:41:23;98365.66;;;20.34;59.40
66857;BME280;53766;50.280;19.160;2023-08-08T06:43:51;98369.94;;;20.35;59.65
66857;BME280;53766;50.280;19.160;2023-08-08T06:46:20;98373.22;;;20.37;59.52
66857;BME280;53766;50.280;19.160;2023-08-08T06:48:47;98366.25;;;20.36;59.60
66857;BME280;53766;50.280;19.160;2023-08-08T06:51:15;98364.16;;;20.38;59.46
66857;BME280;53766;50.280;19.160;2023-08-08T06:53:43;98371.16;;;20.39;59.58
66857;BME280;53766;50.280;19.160;2023-08-08T06:56:10;98369.06;;;20.41;59.50
66857;BME280;53766;50.280;19.160;2023-08-08T06:58:38;98364.53;;;20.42;59.57
66857;BME280;53766;50.280;19.160;2023-08-08T07:01:05;98353.84;;;20.42;59.30
66857;BME280;53766;50.280;19.160;2023-08-08T07:03:33;98361.66;;;20.43;59.54
66857;BME280;53766;50.280;19.160;2023-08-08T07:06:01;98350.94;;;20.43;59.41
66857;BME280;53766;50.280;19.160;2023-08-08T07:08:28;98355.25;;;20.44;59.46
66857;BME280;53766;50.280;19.160;2023-08-08T07:10:57;98359.59;;;20.45;59.35
66857;BME280;53766;50.280;19.160;2023-08-08T07:13:24;98350.50;;;20.46;59.18
66857;BME280;53766;50.280;19.160;2023-08-08T07:15:52;98346.81;;;20.47;59.34
66857;BME280;53766;50.280;19.160;2023-08-08T07:18:19;98345.16;;;20.46;59.33
66857;BME280;53766;50.280;19.160;2023-08-08T07:20:47;98349.69;;;20.46;59.25
66857;BME280;53766;50.280;19.160;2023-08-08T07:23:14;98337.38;;;20.45;59.57
66857;BME280;53766;50.280;19.160;2023-08-08T07:25:42;98345.16;;;20.46;59.38
66857;BME280;53766;50.280;19.160;2023-08-08T07:28:10;98341.47;;;20.47;59.38
66857;BME280;53766;50.280;19.160;2023-08-08T07:30:37;98344.72;;;20.49;59.33
66857;BME280;53766;50.280;19.160;2023-08-08T07:33:05;98342.06;;;20.49;59.34
66857;BME280;53766;50.280;19.160;2023-08-08T07:35:33;98343.09;;;20.48;59.50
66857;BME280;53766;50.280;19.160;2023-08-08T07:38:00;98345.53;;;20.50;59.40
66857;BME280;53766;50.280;19.160;2023-08-08T07:40:28;98343.09;;;20.48;59.39
66857;BME280;53766;50.280;19.160;2023-08-08T07:42:56;98349.47;;;20.47;59.67
66857;BME280;53766;50.280;19.160;2023-08-08T07:45:23;98344.13;;;20.47;59.46
66857;BME280;53766;50.280;19.160;2023-08-08T07:47:51;98343.69;;;20.50;59.44
66857;BME280;53766;50.280;19.160;2023-08-08T07:50:19;98348.00;;;20.51;59.36
66857;BME280;53766;50.280;19.160;2023-08-08T07:52:46;98338.31;;;20.50;59.58
66857;BME280;53766;50.280;19.160;2023-08-08T07:55:14;98342.06;;;20.49;59.51
66857;BME280;53766;50.280;19.160;2023-08-08T07:57:41;98340.19;;;20.50;59.66
66857;BME280;53766;50.280;19.160;2023-08-08T08:00:09;98340.41;;;20.48;59.46
66857;BME280;53766;50.280;19.160;2023-08-08T08:02:42;98341.47;;;20.47;59.60
66857;BME280;53766;50.280;19.160;2023-08-08T08:05:11;98338.53;;;20.49;59.49
66857;BME280;53766;50.280;19.160;2023-08-08T08:07:39;98345.75;;;20.48;59.66
66857;BME280;53766;50.280;19.160;2023-08-08T08:10:09;98346.34;;;20.50;59.54
66857;BME280;53766;50.280;19.160;2023-08-08T08:12:37;98339.38;;;20.49;59.55
66857;BME280;53766;50.280;19.160;2023-08-08T08:15:05;98334.03;;;20.49;59.53
66857;BME280;53766;50.280;19.160;2023-08-08T08:17:32;98332.38;;;20.48;59.58
66857;BME280;53766;50.280;19.160;2023-08-08T08:20:00;98320.41;;;20.51;59.53
66857;BME280;53766;50.280;19.160;2023-08-08T08:22:32;98328.22;;;20.52;59.49
66857;BME280;53766;50.280;19.160;2023-08-08T08:25:00;98321.63;;;20.55;59.43
66857;BME280;53766;50.280;19.160;2023-08-08T08:27:27;98317.06;;;20.55;59.25
66857;BME280;53766;50.280;19.160;2023-08-08T08:29:55;98312.56;;;20.56;59.16
66857;BME280;53766;50.280;19.160;2023-08-08T08:32:22;98319.34;;;20.59;59.22
66857;BME280;53766;50.280;19.160;2023-08-08T08:34:50;98311.53;;;20.57;59.16
66857;BME280;53766;50.280;19.160;2023-08-08T08:37:17;98315.03;;;20.58;59.17
66857;BME280;53766;50.280;19.160;2023-08-08T08:39:45;98307.59;;;20.60;59.23
66857;BME280;53766;50.280;19.160;2023-08-08T08:42:14;98304.94;;;20.60;59.26
66857;BME280;53766;50.280;19.160;2023-08-08T08:44:44;98300.63;;;20.59;59.17
66857;BME280;53766;50.280;19.160;2023-08-08T08:47:14;98302.66;;;20.57;59.26
66857;BME280;53766;50.280;19.160;2023-08-08T08:49:42;98304.31;;;20.58;59.21
66857;BME280;53766;50.280;19.160;2023-08-08T08:52:12;98304.53;;;20.56;59.32
66857;BME280;53766;50.280;19.160;2023-08-08T08:54:41;98300.63;;;20.59;59.15
66857;BME280;53766;50.280;19.160;2023-08-08T08:57:09;98298.56;;;20.61;59.06
66857;BME280;53766;50.280;19.160;2023-08-08T08:59:37;98294.81;;;20.62;59.12
66857;BME280;53766;50.280;19.160;2023-08-08T09:02:05;98295.88;;;20.61;59.11
66857;BME280;53766;50.280;19.160;2023-08-08T09:04:33;98291.53;;;20.60;59.18
66857;BME280;53766;50.280;19.160;2023-08-08T09:07:02;98297.94;;;20.59;59.41
66857;BME280;53766;50.280;19.160;2023-08-08T09:09:33;98310.50;;;20.58;59.28
66857;BME280;53766;50.280;19.160;2023-08-08T09:12:03;98300.84;;;20.57;59.08
66857;BME280;53766;50.280;19.160;2023-08-08T09:14:32;98306.38;;;20.55;59.07
66857;BME280;53766;50.280;19.160;2023-08-08T09:16:59;98308.03;;;20.57;59.00
66857;BME280;53766;50.280;19.160;2023-08-08T09:19:27;98293.84;;;20.56;59.07
66857;BME280;53766;50.280;19.160;2023-08-08T09:21:54;98309.03;;;20.55;58.93
66857;BME280;53766;50.280;19.160;2023-08-08T09:24:22;98301.03;;;20.55;58.92
66857;BME280;53766;50.280;19.160;2023-08-08T09:26:49;98301.03;;;20.55;58.98
66857;BME280;53766;50.280;19.160;2023-08-08T09:29:17;98301.03;;;20.55;58.98
66857;BME280;53766;50.280;19.160;2023-08-08T09:31:46;98313.38;;;20.57;59.21
66857;BME280;53766;50.280;19.160;2023-08-08T09:34:14;98333.13;;;20.55;58.96
66857;BME280;53766;50.280;19.160;2023-08-08T09:36:42;98331.50;;;20.54;58.94
66857;BME280;53766;50.280;19.160;2023-08-08T09:39:09;98333.38;;;20.54;58.85
66857;BME280;53766;50.280;19.160;2023-08-08T09:41:38;98341.41;;;20.54;59.01
66857;BME280;53766;50.280;19.160;2023-08-08T09:44:08;98336.84;;;20.54;58.62
66857;BME280;53766;50.280;19.160;2023-08-08T09:46:35;98339.53;;;20.54;58.69
66857;BME280;53766;50.280;19.160;2023-08-08T09:49:03;98333.13;;;20.55;58.69
66857;BME280;53766;50.280;19.160;2023-08-08T09:51:31;98333.13;;;20.55;58.77
66857;BME280;53766;50.280;19.160;2023-08-08T09:54:01;98333.97;;;20.56;58.76
66857;BME280;53766;50.280;19.160;2023-08-08T09:56:29;98326.56;;;20.58;58.75
66857;BME280;53766;50.280;19.160;2023-08-08T09:58:58;98324.25;;;20.62;58.69
66857;BME280;53766;50.280;19.160;2023-08-08T10:01:26;98314.16;;;20.64;58.60
66857;BME280;53766;50.280;19.160;2023-08-08T10:03:55;98316.81;;;20.64;58.26
66857;BME280;53766;50.280;19.160;2023-08-08T10:06:23;98311.72;;;20.62;58.63
66857;BME280;53766;50.280;19.160;2023-08-08T10:08:52;98309.25;;;20.61;58.85
66857;BME280;53766;50.280;19.160;2023-08-08T10:11:21;98307.59;;;20.60;58.64
66857;BME280;53766;50.280;19.160;2023-08-08T10:13:50;98307.59;;;20.60;58.74
66857;BME280;53766;50.280;19.160;2023-08-08T10:16:22;98309.47;;;20.59;58.62
66857;BME280;53766;50.280;19.160;2023-08-08T10:18:58;98302.25;;;20.60;58.74
66857;BME280;53766;50.280;19.160;2023-08-08T10:21:26;98307.59;;;20.60;58.56
66857;BME280;53766;50.280;19.160;2023-08-08T10:24:07;98311.72;;;20.62;58.63
66857;BME280;53766;50.280;19.160;2023-08-08T10:26:56;98301.38;;;20.66;58.54
66857;BME280;53766;50.280;19.160;2023-08-08T10:29:26;98311.84;;;20.67;58.47
66857;BME280;53766;50.280;19.160;2023-08-08T10:32:04;98291.84;;;20.70;58.32
66857;BME280;53766;50.280;19.160;2023-08-08T10:34:38;98301.53;;;20.71;58.35
66857;BME280;53766;50.280;19.160;2023-08-08T10:37:14;98294.06;;;20.73;58.30
66857;BME280;53766;50.280;19.160;2023-08-08T10:40:00;98295.13;;;20.72;58.34
66857;BME280;53766;50.280;19.160;2023-08-08T10:42:28;98281.53;;;20.73;58.45
66857;BME280;53766;50.280;19.160;2023-08-08T10:44:58;98279.66;;;20.74;58.38
66857;BME280;53766;50.280;19.160;2023-08-08T10:47:31;98293.50;;;20.71;58.43
66857;BME280;53766;50.280;19.160;2023-08-08T10:50:14;98290.25;;;20.69;58.32
66857;BME280;53766;50.280;19.160;2023-08-08T10:55:30;98319.06;;;20.67;58.30
66857;BME280;53766;50.280;19.160;2023-08-08T10:58:04;98312.06;;;20.66;58.32
66857;BME280;53766;50.280;19.160;2023-08-08T11:00:35;98316.63;;;20.65;58.30
66857;BME280;53766;50.280;19.160;2023-08-08T11:03:03;98315.81;;;20.65;58.37
66857;BME280;53766;50.280;19.160;2023-08-08T11:05:36;98319.50;;;20.64;58.28
66857;BME280;53766;50.280;19.160;2023-08-08T11:08:05;98324.84;;;20.64;58.27
66857;BME280;53766;50.280;19.160;2023-08-08T11:10:36;98329.19;;;20.65;58.20
66857;BME280;53766;50.280;19.160;2023-08-08T11:13:05;98324.44;;;20.67;58.27
66857;BME280;53766;50.280;19.160;2023-08-08T11:15:37;98317.41;;;20.66;58.26
66857;BME280;53766;50.280;19.160;2023-08-08T11:18:06;98319.66;;;20.69;58.20
66857;BME280;53766;50.280;19.160;2023-08-08T11:20:36;98320.69;;;20.68;58.04
66857;BME280;53766;50.280;19.160;2023-08-08T11:23:04;98320.91;;;20.66;58.29
66857;BME280;53766;50.280;19.160;2023-08-08T11:25:41;98319.88;;;20.67;58.12
66857;BME280;53766;50.280;19.160;2023-08-08T11:28:10;98306.66;;;20.72;58.14
66857;BME280;53766;50.280;19.160;2023-08-08T11:30:41;98309.91;;;20.74;57.82
66857;BME280;53766;50.280;19.160;2023-08-08T11:33:10;98309.09;;;20.74;57.92
66857;BME280;53766;50.280;19.160;2023-08-08T11:35:44;98311.34;;;20.77;57.72
66857;BME280;53766;50.280;19.160;2023-08-08T11:38:13;98305.97;;;20.77;57.73
66857;BME280;53766;50.280;19.160;2023-08-08T11:40:42;98309.09;;;20.74;57.76
66857;BME280;53766;50.280;19.160;2023-08-08T11:43:11;98307.47;;;20.73;57.84
66857;BME280;53766;50.280;19.160;2023-08-08T11:45:39;98308.66;;;20.77;57.62
66857;BME280;53766;50.280;19.160;2023-08-08T11:48:08;98305.97;;;20.77;57.72
66857;BME280;53766;50.280;19.160;2023-08-08T11:50:36;98316.09;;;20.75;57.74
66857;BME280;53766;50.280;19.160;2023-08-08T11:53:04;98315.66;;;20.78;57.70
66857;BME280;53766;50.280;19.160;2023-08-08T11:55:35;98318.53;;;20.77;57.83
66857;BME280;53766;50.280;19.160;2023-08-08T11:58:04;98317.75;;;20.76;57.75
66857;BME280;53766;50.280;19.160;2023-08-08T12:00:32;98316.25;;;20.80;57.67
66857;BME280;53766;50.280;19.160;2023-08-08T12:03:01;98323.81;;;20.83;57.43
66857;BME280;53766;50.280;19.160;2023-08-08T12:05:36;98318.03;;;20.86;57.39
66857;BME280;53766;50.280;19.160;2023-08-08T12:08:06;98318.47;;;20.83;57.32
66857;BME280;53766;50.280;19.160;2023-08-08T12:10:34;98313.13;;;20.83;57.36
66857;BME280;53766;50.280;19.160;2023-08-08T12:13:02;98310.22;;;20.85;57.20
66857;BME280;53766;50.280;19.160;2023-08-08T12:15:31;98319.28;;;20.84;57.08
66857;BME280;53766;50.280;19.160;2023-08-08T12:18:03;98322.22;;;20.82;57.05
66857;BME280;53766;50.280;19.160;2023-08-08T12:20:31;98325.91;;;20.81;57.05
66857;BME280;53766;50.280;19.160;2023-08-08T12:22:59;98333.94;;;20.81;57.02
66857;BME280;53766;50.280;19.160;2023-08-08T12:25:27;98327.09;;;20.85;57.04
66857;BME280;53766;50.280;19.160;2023-08-08T12:27:55;98325.84;;;20.88;56.95
66857;BME280;53766;50.280;19.160;2023-08-08T12:30:22;98326.69;;;20.88;56.89
66857;BME280;53766;50.280;19.160;2023-08-08T12:32:50;98329.72;;;20.92;56.72
66857;BME280;53766;50.280;19.160;2023-08-08T12:35:18;98328.91;;;20.91;56.78
66857;BME280;53766;50.280;19.160;2023-08-08T12:37:47;98330.53;;;20.92;56.58
66857;BME280;53766;50.280;19.160;2023-08-08T12:40:15;98320.41;;;20.94;56.80
66857;BME280;53766;50.280;19.160;2023-08-08T12:42:42;98320.88;;;20.91;56.74
66857;BME280;53766;50.280;19.160;2023-08-08T12:45:10;98317.59;;;20.89;56.73
66857;BME280;53766;50.280;19.160;2023-08-08T12:47:37;98312.22;;;20.89;56.70
66857;BME280;53766;50.280;19.160;2023-08-08T12:50:06;98318.41;;;20.90;56.82
66857;BME280;53766;50.280;19.160;2023-08-08T12:52:33;98322.13;;;20.89;56.83
66857;BME280;53766;50.280;19.160;2023-08-08T12:55:01;98321.31;;;20.88;56.92
66857;BME280;53766;50.280;19.160;2023-08-08T12:57:30;98318.03;;;20.86;56.98
66857;BME280;53766;50.280;19.160;2023-08-08T12:59:57;98329.56;;;20.87;56.89